Aviation Digital Data Service (ADDS)

Output produced by METARs form (0704 UTC 24 March 2019)
found at http://www.aviationweather.gov/metar/data/
 
SPQU 240700Z 35004KT CAVOK 11/07 Q1027 RMK PP000
SPQU 240500Z 2406/2506 04005KT CAVOK TX21/2418Z TN10/2410Z 
     BECMG 2414/2416 25010KT 
     BECMG 2500/2502 05005KT
       
SPHI 240700Z 19009KT CAVOK 21/18 Q1013 RMK PP000
SPHI 240500Z 2406/2506 18010KT 9999 SCT030 TX30/2419Z TN20/2411Z 
     FM241800 18018KT CAVOK 
     FM250100 18010KT 9999 SCT040
       
SPZO 240700Z VRB02KT 9000 -RA VCSH FEW036 SCT040 OVC060 09/07 Q1035 RMK PP010
SPZO 240500Z 2406/2506 VRB02KT 9999 SCT046 BKN080 TX21/2419Z TN08/2411Z 
     TEMPO 2406/2410 DZ FEW020 SCT036 BKN060 
     TEMPO 2418/2422 36010KT FEW040TCU SCT046 BKN080
       
SPQT 240700Z 00000KT CAVOK 25/24 Q1013 NOSIG RMK PP000
TAF SPQT 240500Z 2406/2506 22003KT 9999 SCT015 BKN070 TX32/2419Z TN23/2411Z 
     TEMPO 2409/2412 14005KT 5000 -DZRA BR BKN010 OVC080 
     BECMG 2413/2415 01003KT SCT015 BKN100 
     TEMPO 2420/2423 07008KT 4000 RA BKN010 FEW020TCU BKN080 
     BECMG 2500/2502 SCT020 SCT100
       
SPJL 240200Z 22006KT 9999 SCT025 BKN100 10/04 Q1036 RMK PP000
SPJL 232300Z 2400/2424 VRB04KT 9999 SCT020 TX19/2418Z TN04/2410Z 
     FM240900 VRB03KT 9999 SCT012 SCT080 
     FM241700 05006KT 9999 SCT020
       
SPSO 240700Z 19005KT CAVOK 20/17 Q1012 RMK PP000
SPSO 240500Z 2406/2506 21005KT CAVOK TX27/2419Z TN19/2411Z 
     FM240800 VRB03KT 7000 NSC 
     TEMPO 2410/2412 4500 BR 
     BECMG 2413/2415 27010KT CAVOK 
     BECMG 2419/2421 22018KT
       
SPCL 240700Z 21002KT 9999 SCT020 BKN070 24/23 Q1013 RMK PP000
SPCL 240500Z 2406/2506 VRB02KT 9999 SCT020 BKN080 TX30/2419Z TN23/2411Z 
     TEMPO 2409/2412 8000 BKN015 OVC070 
     TEMPO 2422/2500 07005KT 5000 SHRA BKN012 FEW025TCU BKN070 
     BECMG 2501/2503 VRB02KT SCT020 SCT100
       
SPTN 240700Z 00000KT CAVOK 17/132 Q1016 RMK PP000
SPTN 240500Z 2406/2506 VRB03KT CAVOK TX26/2419Z TN16/2411Z 
     BECMG 2413/2416 22010KT 
     BECMG 2500/2502 VRB03KT
       
SPST 240200Z 14003KT 9999 FEW025 24/22 Q1013 RMK BIRD HAZARD RWY 17/35 PP000
SPST 232300Z 2400/2424 VRB02KT 9999 SCT025 BKN080 TX35/2420Z TN22/2411Z 
     FM241200 00000KT 6000 SCT010 SCT020 BKN070 
     TEMPO 2412/2414 3000 BR SCT006 SCT010 BKN050 
     BECMG 2415/2417 05006KT 9999 BKN015 OVC070 PORB40 
     TEMPO 2418/2421 6000 RA BKN010
       
SPRU 240700Z 12004KT 9999 SCT150 20/18 Q1013 RMK PP000
SPRU 240500Z 2406/2506 13005KT 8000 SCT130 TX23/2419Z TN19/2411Z 
     FM241500 17010KT CAVOK 
     FM241900 15012KT 9999 SCT150 
     FM250400 13005KT 8000 BKN150
       
SPME 240300Z 10003KT 070V140 9999 OVC012 26/23 Q1013 RMK BIRD HAZARD RWY 32/14 PP000
TAF SPME 232300Z 2400/2424 28006KT 9999 OVC012 TX32/2419Z TN23/2411Z 
     FM241200 VRB02KT 9999 BKN013 
     BECMG 2415/2418 33010KT SCT013 BKN023